Time,TemperatureF,DewpointF,PressureIn,WindDirection,WindDirectionDegrees,WindSpeedMPH,WindSpeedGustMPH,Humidity,HourlyPrecipIn,Conditions,Clouds,dailyrainin,SoftwareType,DateUTC
2013-04-02 00:46:00,29.8,17.0,29.86,ENE,59,1.0,-999.0,59,-99.99,,,0.00,weatherlink.com 1.10,2013-04-02 04:46:00,
2013-04-02 01:17:00,29.9,17.0,29.87,NE,54,0.0,-999.0,60,-99.99,,,0.00,weatherlink.com 1.10,2013-04-02 05:17:00,
2013-04-02 01:32:00,29.8,18.0,29.86,NE,54,0.0,-999.0,61,-99.99,,,0.00,weatherlink.com 1.10,2013-04-02 05:32:00,
2013-04-02 03:02:00,27.9,23.0,29.86,NE,55,2.0,-999.0,81,-99.99,,,0.00,weatherlink.com 1.10,2013-04-02 07:02:00,
2013-04-02 03:16:00,27.9,22.0,29.86,ESE,112,0.0,-999.0,79,-99.99,,,0.00,weatherlink.com 1.10,2013-04-02 07:16:00,
2013-04-02 03:31:00,28.2,22.0,29.86,NNE,18,2.0,-999.0,78,-99.99,,,0.00,weatherlink.com 1.10,2013-04-02 07:31:00,
2013-04-02 03:46:00,27.0,23.0,29.86,ENE,64,0.0,-999.0,84,-99.99,,,0.00,weatherlink.com 1.10,2013-04-02 07:46:00,
2013-04-02 04:02:00,26.9,23.0,29.86,NE,49,4.0,-999.0,85,-99.99,,,0.00,weatherlink.com 1.10,2013-04-02 08:02:00,
2013-04-02 04:32:00,26.9,23.0,29.86,NE,53,0.0,-999.0,86,-99.99,,,0.00,weatherlink.com 1.10,2013-04-02 08:32:00,
2013-04-02 04:47:00,27.1,24.0,29.86,East,80,1.0,-999.0,86,-99.99,,,0.00,weatherlink.com 1.10,2013-04-02 08:47:00,
2013-04-02 05:17:00,26.0,23.0,29.87,ESE,102,1.0,-999.0,88,-99.99,,,0.00,weatherlink.com 1.10,2013-04-02 09:17:00,
2013-04-02 05:32:00,25.7,23.0,29.87,NE,45,8.0,-999.0,88,-99.99,,,0.00,weatherlink.com 1.10,2013-04-02 09:32:00,
2013-04-02 05:47:00,25.7,22.0,29.88,ESE,121,4.0,-999.0,87,-99.99,,,0.00,weatherlink.com 1.10,2013-04-02 09:47:00,
2013-04-02 06:02:00,25.6,23.0,29.88,ESE,109,0.0,-999.0,88,-99.99,,,0.00,weatherlink.com 1.10,2013-04-02 10:02:00,
2013-04-02 06:17:00,25.3,22.0,29.89,ENE,75,0.0,-999.0,88,-99.99,,,0.00,weatherlink.com 1.10,2013-04-02 10:17:00,
2013-04-02 06:48:00,25.6,23.0,29.89,NE,38,3.0,-999.0,88,-99.99,,,0.00,weatherlink.com 1.10,2013-04-02 10:48:00,
2013-04-02 07:02:00,25.4,22.0,29.90,NE,37,0.0,-999.0,87,-99.99,,,0.00,weatherlink.com 1.10,2013-04-02 11:02:00,
2013-04-02 07:17:00,25.9,22.0,29.90,NE,55,1.0,-999.0,86,-99.99,,,0.00,weatherlink.com 1.10,2013-04-02 11:17:00,
2013-04-02 07:32:00,26.5,21.0,29.91,NE,44,3.0,-999.0,79,-99.99,,,0.00,weatherlink.com 1.10,2013-04-02 11:32:00,
2013-04-02 07:47:00,26.7,20.0,29.91,NE,47,0.0,-999.0,77,-99.99,,,0.00,weatherlink.com 1.10,2013-04-02 11:47:00,
2013-04-02 08:02:00,27.0,20.0,29.91,ENE,64,3.0,-999.0,75,-99.99,,,0.00,weatherlink.com 1.10,2013-04-02 12:02:00,
2013-04-02 08:17:00,27.3,20.0,29.92,NNE,32,1.0,-999.0,75,-99.99,,,0.00,weatherlink.com 1.10,2013-04-02 12:17:00,
2013-04-02 08:32:00,25.7,22.0,29.93,East,96,5.0,-999.0,84,-99.99,,,0.00,weatherlink.com 1.10,2013-04-02 12:32:00,
2013-04-02 08:48:00,26.1,23.0,29.93,NNW,341,0.0,-999.0,87,-99.99,,,0.00,weatherlink.com 1.10,2013-04-02 12:48:00,
2013-04-02 09:03:00,27.1,23.0,29.92,NNE,17,1.0,-999.0,85,-99.99,,,0.00,weatherlink.com 1.10,2013-04-02 13:03:00,
2013-04-02 09:19:00,28.4,23.0,29.92,NNW,347,2.0,-999.0,79,-99.99,,,0.00,weatherlink.com 1.10,2013-04-02 13:19:00,
2013-04-02 09:33:00,29.4,21.0,29.92,North,5,4.0,-999.0,72,-99.99,,,0.01,weatherlink.com 1.10,2013-04-02 13:33:00,
2013-04-02 09:48:00,29.4,20.0,29.92,North,355,6.0,-999.0,67,-99.99,,,0.01,weatherlink.com 1.10,2013-04-02 13:48:00,
2013-04-02 10:05:00,30.1,18.0,29.92,NNE,30,4.0,-999.0,61,-99.99,,,0.01,weatherlink.com 1.10,2013-04-02 14:05:00,
2013-04-02 10:19:00,30.0,17.0,29.92,NNW,338,6.0,-999.0,59,-99.99,,,0.02,weatherlink.com 1.10,2013-04-02 14:19:00,
2013-04-02 10:33:00,31.1,17.0,29.92,NNE,29,10.0,-999.0,56,-99.99,,,0.02,weatherlink.com 1.10,2013-04-02 14:33:00,
2013-04-02 10:48:00,31.1,17.0,29.92,North,5,5.0,-999.0,56,-99.99,,,0.02,weatherlink.com 1.10,2013-04-02 14:48:00,
2013-04-02 11:03:00,31.7,15.0,29.93,NE,36,14.0,-999.0,51,-99.99,,,0.02,weatherlink.com 1.10,2013-04-02 15:03:00,
2013-04-02 11:18:00,32.0,14.0,29.92,NE,38,11.0,-999.0,48,-99.99,,,0.02,weatherlink.com 1.10,2013-04-02 15:18:00,
2013-04-02 11:33:00,32.0,13.0,29.91,NNE,17,6.0,-999.0,45,-99.99,,,0.02,weatherlink.com 1.10,2013-04-02 15:33:00,
2013-04-02 11:48:00,32.3,13.0,29.91,East,80,5.0,-999.0,46,-99.99,,,0.02,weatherlink.com 1.10,2013-04-02 15:48:00,
2013-04-02 12:03:00,32.3,14.0,29.91,North,360,11.0,-999.0,47,-99.99,,,0.02,weatherlink.com 1.10,2013-04-02 16:03:00,
2013-04-02 12:18:00,32.9,13.0,29.91,NE,54,8.0,-999.0,44,-99.99,,,0.02,weatherlink.com 1.10,2013-04-02 16:18:00,
2013-04-02 12:33:00,32.7,14.0,29.91,NE,44,8.0,-999.0,46,-99.99,,,0.02,weatherlink.com 1.10,2013-04-02 16:33:00,
2013-04-02 12:48:00,33.0,15.0,29.91,NNW,347,5.0,-999.0,47,-99.99,,,0.02,weatherlink.com 1.10,2013-04-02 16:48:00,
2013-04-02 13:03:00,35.0,16.0,29.92,North,11,19.0,-999.0,46,-99.99,,,0.03,weatherlink.com 1.10,2013-04-02 17:03:00,
2013-04-02 13:18:00,34.6,14.0,29.91,ESE,105,7.0,-999.0,43,-99.99,,,0.03,weatherlink.com 1.10,2013-04-02 17:18:00,
2013-04-02 13:33:00,33.8,15.0,29.92,ENE,63,18.0,-999.0,47,-99.99,,,0.03,weatherlink.com 1.10,2013-04-02 17:33:00,
2013-04-02 14:03:00,34.8,13.0,29.91,North,11,7.0,-999.0,40,-99.99,,,0.03,weatherlink.com 1.10,2013-04-02 18:03:00,
2013-04-02 14:18:00,33.2,16.0,29.91,SSE,160,7.0,-999.0,50,-99.99,,,0.03,weatherlink.com 1.10,2013-04-02 18:18:00,
2013-04-02 14:33:00,33.2,18.0,29.91,East,89,12.0,-999.0,53,-99.99,,,0.03,weatherlink.com 1.10,2013-04-02 18:33:00,
2013-04-02 15:04:00,34.7,15.0,29.90,ESE,122,12.0,-999.0,45,-99.99,,,0.03,weatherlink.com 1.10,2013-04-02 19:04:00,
2013-04-02 15:19:00,34.6,12.0,29.90,ESE,109,7.0,-999.0,40,-99.99,,,0.03,weatherlink.com 1.10,2013-04-02 19:19:00,
2013-04-02 15:34:00,36.0,13.0,29.90,East,98,21.0,-999.0,39,-99.99,,,0.03,weatherlink.com 1.10,2013-04-02 19:34:00,
2013-04-02 15:49:00,33.9,14.0,29.90,SE,130,7.0,-999.0,45,-99.99,,,0.03,weatherlink.com 1.10,2013-04-02 19:49:00,
2013-04-02 16:04:00,34.1,15.0,29.91,NE,44,7.0,-999.0,46,-99.99,,,0.03,weatherlink.com 1.10,2013-04-02 20:04:00,
2013-04-02 16:19:00,34.5,16.0,29.90,NE,54,10.0,-999.0,47,-99.99,,,0.03,weatherlink.com 1.10,2013-04-02 20:19:00,
2013-04-02 16:34:00,34.1,16.0,29.91,SE,134,9.0,-999.0,47,-99.99,,,0.03,weatherlink.com 1.10,2013-04-02 20:34:00,
2013-04-02 16:49:00,33.9,16.0,29.92,East,80,12.0,-999.0,48,-99.99,,,0.03,weatherlink.com 1.10,2013-04-02 20:49:00,
2013-04-02 17:04:00,32.6,18.0,29.92,South,187,1.0,-999.0,56,-99.99,,,0.03,weatherlink.com 1.10,2013-04-02 21:04:00,
2013-04-02 17:19:00,33.9,18.0,29.92,SE,134,5.0,-999.0,52,-99.99,,,0.03,weatherlink.com 1.10,2013-04-02 21:19:00,
2013-04-02 17:34:00,34.1,17.0,29.92,SE,137,5.0,-999.0,49,-99.99,,,0.03,weatherlink.com 1.10,2013-04-02 21:34:00,
2013-04-02 17:49:00,34.6,17.0,29.93,ESE,117,5.0,-999.0,48,-99.99,,,0.03,weatherlink.com 1.10,2013-04-02 21:49:00,
2013-04-02 18:04:00,33.5,16.0,29.94,East,86,4.0,-999.0,48,-99.99,,,0.03,weatherlink.com 1.10,2013-04-02 22:04:00,
2013-04-02 18:19:00,34.1,17.0,29.94,ESE,104,2.0,-999.0,49,-99.99,,,0.03,weatherlink.com 1.10,2013-04-02 22:19:00,
2013-04-02 18:34:00,33.7,17.0,29.94,East,91,6.0,-999.0,50,-99.99,,,0.03,weatherlink.com 1.10,2013-04-02 22:34:00,
2013-04-02 18:49:00,33.3,16.0,29.95,East,99,0.0,-999.0,49,-99.99,,,0.03,weatherlink.com 1.10,2013-04-02 22:49:00,
2013-04-02 19:04:00,33.2,16.0,29.95,SSE,148,8.0,-999.0,49,-99.99,,,0.03,weatherlink.com 1.10,2013-04-02 23:04:00,
2013-04-02 19:19:00,33.0,17.0,29.96,ESE,103,9.0,-999.0,51,-99.99,,,0.03,weatherlink.com 1.10,2013-04-02 23:19:00,
2013-04-02 19:34:00,32.6,18.0,29.96,ENE,78,4.0,-999.0,56,-99.99,,,0.03,weatherlink.com 1.10,2013-04-02 23:34:00,
2013-04-02 19:49:00,32.1,19.0,29.98,ESE,111,6.0,-999.0,60,-99.99,,,0.03,weatherlink.com 1.10,2013-04-02 23:49:00,
2013-04-02 20:04:00,31.9,19.0,29.98,ESE,113,2.0,-999.0,60,-99.99,,,0.03,weatherlink.com 1.10,2013-04-03 00:04:00,
2013-04-02 20:19:00,31.5,20.0,29.98,SE,134,7.0,-999.0,63,-99.99,,,0.03,weatherlink.com 1.10,2013-04-03 00:19:00,
2013-04-02 20:34:00,31.4,20.0,29.99,East,96,0.0,-999.0,63,-99.99,,,0.03,weatherlink.com 1.10,2013-04-03 00:34:00,
2013-04-02 20:49:00,31.4,20.0,29.99,SE,132,8.0,-999.0,64,-99.99,,,0.03,weatherlink.com 1.10,2013-04-03 00:49:00,
2013-04-02 21:04:00,31.4,20.0,30.00,East,96,4.0,-999.0,64,-99.99,,,0.03,weatherlink.com 1.10,2013-04-03 01:04:00,
2013-04-02 21:19:00,31.5,21.0,30.00,East,79,1.0,-999.0,65,-99.99,,,0.03,weatherlink.com 1.10,2013-04-03 01:19:00,
2013-04-02 21:34:00,31.5,21.0,30.00,East,98,5.0,-999.0,66,-99.99,,,0.03,weatherlink.com 1.10,2013-04-03 01:34:00,
2013-04-02 21:50:00,31.0,22.0,30.01,North,5,10.0,-999.0,70,-99.99,,,0.03,weatherlink.com 1.10,2013-04-03 01:50:00,
2013-04-02 22:05:00,30.2,24.0,30.01,ENE,74,2.0,-999.0,77,-99.99,,,0.03,weatherlink.com 1.10,2013-04-03 02:05:00,
2013-04-02 22:20:00,30.2,24.0,30.01,SE,140,6.0,-999.0,78,-99.99,,,0.03,weatherlink.com 1.10,2013-04-03 02:20:00,
2013-04-02 22:35:00,29.7,25.0,30.00,NE,56,5.0,-999.0,81,-99.99,,,0.03,weatherlink.com 1.10,2013-04-03 02:35:00,
2013-04-02 22:50:00,29.9,24.0,30.01,ESE,123,1.0,-999.0,78,-99.99,,,0.03,weatherlink.com 1.10,2013-04-03 02:50:00,
2013-04-02 23:05:00,30.3,23.0,30.00,ENE,74,1.0,-999.0,74,-99.99,,,0.03,weatherlink.com 1.10,2013-04-03 03:05:00,
2013-04-02 23:20:00,30.3,22.0,30.00,ESE,107,5.0,-999.0,71,-99.99,,,0.03,weatherlink.com 1.10,2013-04-03 03:20:00,
2013-04-02 23:35:00,30.6,22.0,30.00,East,86,1.0,-999.0,69,-99.99,,,0.03,weatherlink.com 1.10,2013-04-03 03:35:00,
2013-04-02 23:50:00,30.8,21.0,30.00,East,79,3.0,-999.0,67,-99.99,,,0.03,weatherlink.com 1.10,2013-04-03 03:50:00,